Flight Track Log - Related Links

Times and Time Zones

All times are in EDT time to prevent confusion due to time zone crossing. See the UCA597 flight status page for this flight to view local times or setup timezone preferences in your user account.

Time Position Orientation Groundspeed Altitude Reporting Facility
EDT Latitude Longitude Course Direction KTS MPH feet Rate Location/Type
Fri 05:49:18 PM 38.9833 -77.4500 322° Northwest 157 181 1,800  Level Potomac TRACON
Fri 05:50:12 PM 39.0167 -77.4833 322° Northwest 171 197 3,400 1,700 Climbing Potomac TRACON
Fri 05:51:18 PM 39.0667 -77.5167 333° Northwest 179 206 5,200 1,500 Climbing Potomac TRACON
Fri 05:53:08 PM 39.1392 -77.5611 335° Northwest 176 203 7,800 1,368 Climbing Washington Center
Fri 05:54:09 PM 39.1825 -77.5892 333° Northwest 176 203 9,100 1,240 Climbing Washington Center
Fri 05:55:09 PM 39.2281 -77.6039 346° North 181 208 10,300 1,190 Climbing Washington Center
Fri 05:56:10 PM 39.2742 -77.5836 19° North 186 214 11,500 1,240 Climbing Washington Center
Fri 05:57:10 PM 39.3203 -77.5714 12° North 180 207 12,800 1,271 Climbing Washington Center
Fri 05:58:08 PM 39.3622 -77.5564 15° North 163 188 14,000 1,119 Climbing Washington Center
Fri 05:59:08 PM 39.4083 -77.5417 14° North 163 188 15,000 984 Climbing Washington Center
Fri 06:00:10 PM 39.4544 -77.5242 16° North 168 193 16,000 492 Climbing Washington Center
Fri 06:01:10 PM 39.5089 -77.5039 16° North 168 193 16,000 314 Level Washington Center
Fri 06:03:21 PM 39.6489 -77.4528 16° North 213 245 17,000 314 Climbing New York Center
Fri 06:04:21 PM 39.7050 -77.4553 358° North 213 245 17,000  Level New York Center
Fri 06:05:22 PM 39.7764 -77.4514 North 227 261 17,000  Level New York Center
Fri 06:05:22 PM 39.7764 -77.4514 North 227 261 17,000  Level New York Center
Fri 06:06:21 PM 39.8347 -77.4514 360° North 227 261 17,000  Level New York Center
Fri 06:06:21 PM 39.8347 -77.4514 360° North 227 261 17,000  Level New York Center
Fri 06:07:21 PM 39.9078 -77.4503 North 232 267 17,000  Level New York Center
Fri 06:07:21 PM 39.9078 -77.4503 North 232 267 17,000  Level New York Center
Fri 06:08:21 PM 39.9617 -77.4203 23° Northeast 232 267 17,000  Level New York Center
Fri 06:08:21 PM 39.9617 -77.4203 23° Northeast 232 267 17,000  Level New York Center
Fri 06:09:21 PM 40.0239 -77.3881 22° Northeast 227 261 17,000  Level New York Center
Fri 06:09:21 PM 40.0239 -77.3881 22° Northeast 227 261 17,000  Level New York Center
Fri 06:10:21 PM 40.0756 -77.3578 24° Northeast 222 255 17,000  Level New York Center
Fri 06:10:21 PM 40.0756 -77.3578 24° Northeast 222 255 17,000  Level New York Center
Fri 06:11:21 PM 40.1403 -77.3206 24° Northeast 222 255 17,000  Level New York Center
Fri 06:11:21 PM 40.1403 -77.3206 24° Northeast 222 255 17,000  Level New York Center
Fri 06:12:21 PM 40.1919 -77.2900 24° Northeast 222 255 17,000  Level New York Center
Fri 06:12:21 PM 40.1919 -77.2900 24° Northeast 222 255 17,000  Level New York Center
Fri 06:13:21 PM 40.2561 -77.2581 21° North 222 255 17,000  Level New York Center
Fri 06:13:21 PM 40.2561 -77.2581 21° North 222 255 17,000  Level New York Center
Fri 06:14:21 PM 40.3058 -77.2272 25° Northeast 222 255 17,000  Level New York Center
Fri 06:14:21 PM 40.3058 -77.2272 25° Northeast 222 255 17,000  Level New York Center
Fri 06:15:21 PM 40.3703 -77.1922 22° Northeast 222 255 17,000  Level New York Center
Fri 06:15:21 PM 40.3703 -77.1922 22° Northeast 222 255 17,000  Level New York Center
Fri 06:16:21 PM 40.4219 -77.1617 24° Northeast 222 255 17,000  Level New York Center
Fri 06:16:21 PM 40.4219 -77.1617 24° Northeast 222 255 17,000  Level New York Center
Fri 06:17:21 PM 40.4822 -77.1264 24° Northeast 217 250 17,000  Level New York Center
Fri 06:17:21 PM 40.4822 -77.1264 24° Northeast 217 250 17,000  Level New York Center
Fri 06:18:21 PM 40.5317 -77.0981 24° Northeast 217 250 17,000  Level New York Center
Fri 06:18:21 PM 40.5317 -77.0981 24° Northeast 217 250 17,000  Level New York Center
Fri 06:19:21 PM 40.5919 -77.0653 22° Northeast 217 250 17,000  Level New York Center
Fri 06:19:21 PM 40.5919 -77.0653 22° Northeast 217 250 17,000  Level New York Center
Fri 06:20:22 PM 40.6392 -77.0369 24° Northeast 217 250 17,000  Level New York Center
Fri 06:20:22 PM 40.6392 -77.0369 24° Northeast 217 250 17,000  Level New York Center
Fri 06:21:21 PM 40.6931 -77.0061 23° Northeast 212 244 17,000  Level New York Center
Fri 06:21:21 PM 40.6931 -77.0061 23° Northeast 212 244 17,000  Level New York Center
Fri 06:22:21 PM 40.7486 -76.9756 23° Northeast 212 244 17,000  Level New York Center
Fri 06:22:21 PM 40.7486 -76.9756 23° Northeast 212 244 17,000  Level New York Center
Fri 06:23:21 PM 40.8047 -76.9422 24° Northeast 212 244 17,000  Level New York Center
Fri 06:23:21 PM 40.8047 -76.9422 24° Northeast 212 244 17,000 -100 Level New York Center
Fri 06:24:21 PM 40.8542 -76.9111 25° Northeast 207 238 16,900 -100 Descending New York Center
Fri 06:24:21 PM 40.8542 -76.9111 25° Northeast 207 238 16,900 -600 Level New York Center
Fri 06:25:21 PM 40.9186 -76.8758 22° Northeast 207 238 16,300 -600 Descending New York Center
Fri 06:25:21 PM 40.9186 -76.8758 22° Northeast 207 238 16,300 -600 Level New York Center
Fri 06:26:21 PM 40.9703 -76.8447 24° Northeast 217 250 15,700 -600 Descending New York Center
Fri 06:26:21 PM 40.9703 -76.8447 24° Northeast 217 250 15,700 -600 Level New York Center
Fri 06:27:21 PM 41.0303 -76.8089 24° Northeast 223 257 15,100 -600 Descending New York Center
Fri 06:27:21 PM 41.0303 -76.8089 24° Northeast 223 257 15,100 -100 Level New York Center
Fri 06:28:21 PM 41.0903 -76.7756 23° Northeast 223 257 15,000 -100 Descending New York Center
Fri 06:28:21 PM 41.0903 -76.7756 23° Northeast 223 257 15,000  Level New York Center
Fri 06:29:21 PM 41.1442 -76.7444 23° Northeast 218 251 15,000  Level New York Center
Fri 06:29:21 PM 41.1442 -76.7444 23° Northeast 218 251 15,000  Level New York Center
Fri 06:30:21 PM 41.1978 -76.7133 24° Northeast 218 251 15,000  Level New York Center
Fri 06:30:21 PM 41.1978 -76.7133 24° Northeast 218 251 15,000  Level New York Center
Fri 06:31:21 PM 41.2581 -76.6744 26° Northeast 218 251 15,000  Level New York Center
Fri 06:31:21 PM 41.2581 -76.6744 26° Northeast 218 251 15,000  Level New York Center
Fri 06:32:21 PM 41.3139 -76.6406 25° Northeast 218 251 15,000  Level New York Center
Fri 06:32:21 PM 41.3139 -76.6406 25° Northeast 218 251 15,000  Level New York Center
Fri 06:33:21 PM 41.3694 -76.6097 23° Northeast 218 251 15,000  Level New York Center
Fri 06:33:21 PM 41.3694 -76.6097 23° Northeast 218 251 15,000  Level New York Center
Fri 06:34:21 PM 41.4208 -76.5808 23° Northeast 218 251 15,000  Level New York Center
Fri 06:34:21 PM 41.4208 -76.5808 23° Northeast 218 251 15,000  Level New York Center
Fri 06:35:21 PM 41.4831 -76.5447 23° Northeast 218 251 15,000  Level New York Center
Fri 06:35:21 PM 41.4831 -76.5447 23° Northeast 218 251 15,000  Level New York Center
Fri 06:36:21 PM 41.5389 -76.5106 25° Northeast 218 251 15,000  Level New York Center
Fri 06:36:21 PM 41.5389 -76.5106 25° Northeast 218 251 15,000 -700 Level New York Center
Fri 06:37:21 PM 41.5969 -76.4739 25° Northeast 224 258 14,300 -700 Descending New York Center
Fri 06:37:21 PM 41.5969 -76.4739 25° Northeast 224 258 14,300 -600 Level New York Center
Fri 06:38:21 PM 41.6528 -76.4400 24° Northeast 224 258 13,700 -600 Descending New York Center
Fri 06:38:21 PM 41.6528 -76.4400 24° Northeast 224 258 13,700 -1,200 Level New York Center
Fri 06:39:21 PM 41.7147 -76.4064 22° Northeast 229 264 12,500 -1,200 Descending New York Center
Fri 06:39:21 PM 41.7147 -76.4064 22° Northeast 229 264 12,500 -1,600 Level New York Center
Fri 06:40:21 PM 41.7778 -76.3475 35° Northeast 244 281 10,900 -1,600 Descending New York Center
Fri 06:40:21 PM 41.7778 -76.3475 35° Northeast 244 281 10,900 -1,300 Level New York Center
Fri 06:41:21 PM 41.8247 -76.2819 46° Northeast 244 281 9,600 -1,300 Descending New York Center
Fri 06:41:21 PM 41.8247 -76.2819 46° Northeast 244 281 9,600 -1,400 Level New York Center
Fri 06:42:21 PM 41.8714 -76.2189 45° Northeast 239 275 8,200 -1,400 Descending New York Center
Fri 06:42:21 PM 41.8714 -76.2189 45° Northeast 239 275 8,200 -1,200 Level New York Center
Fri 06:43:21 PM 41.9092 -76.1636 47° Northeast 227 261 7,000 -1,200 Descending New York Center
Fri 06:43:21 PM 41.9092 -76.1636 47° Northeast 227 261 7,000 -1,000 Level New York Center
Fri 06:44:21 PM 41.9556 -76.1061 43° Northeast 227 261 6,000 -1,000 Descending New York Center
Fri 06:44:21 PM 41.9556 -76.1061 43° Northeast 227 261 6,000 -1,100 Level New York Center
Fri 06:45:21 PM 42.0103 -76.0433 40° Northeast 227 261 4,900 -1,100 Descending New York Center
Fri 06:45:21 PM 42.0103 -76.0433 40° Northeast 227 261 4,900 -800 Level New York Center
Fri 06:46:21 PM 42.0608 -75.9861 40° Northeast 227 261 4,100 -800 Descending New York Center
Fri 06:46:21 PM 42.0608 -75.9861 40° Northeast 227 261 4,100 -200 Level New York Center
Fri 06:47:21 PM 42.1106 -75.9425 33° Northeast 221 254 3,900 -200 Descending New York Center
Fri 06:47:21 PM 42.1106 -75.9425 33° Northeast 221 254 3,900 -800 Level New York Center
Fri 06:48:21 PM 42.1567 -75.9347 North 174 200 3,100 -800 Descending New York Center
Fri 06:48:21 PM 42.1567 -75.9347 North 174 200 3,100 -1,000 Level New York Center
Fri 06:49:21 PM 42.1847 -75.9594 327° Northwest 154 177 2,100 -1,000 Descending New York Center
Fri 06:49:21 PM 42.1847 -75.9594 327° Northwest 154 177 2,100 6,900 Level New York Center
Fri 06:50:21 PM 42.2350 -75.9494 North 154 177 9,000 6,900 Climbing New York Center
Fri 06:50:21 PM 42.2350 -75.9494 North 154 177 9,000  Level New York Center
Fri 06:51:21 PM 42.2767 -75.9528 357° North 154 177 9,000  Level New York Center
Fri 06:51:21 PM 42.2767 -75.9528 357° North 154 177 9,000  Level New York Center

Login

Don't have an account? Register now (free) for customized features, flight alerts, and more!